AirNav   Everest Fuels
 
 657 users online  

99A Smith's International Airport
Sherrill, Arkansas, USA

GOING TO SHERRILL?


FAA INFORMATION EFFECTIVE 31 DECEMBER 2020

Location

FAA Identifier: 99A
Lat/Long: 34-24-22.4000N 091-57-31.5000W
34-24.373333N 091-57.525000W
34.4062222,-91.9587500
(estimated)
Elevation: 218 ft. / 66 m (estimated)
Variation: 03E (1990)
From city: 1 mile NW of SHERRILL, AR
Time zone: UTC -6 (UTC -5 during Daylight Saving Time)
Zip code: 72152

Airport Operations

Airport use: Open to the public
Activation date: 12/1991
Control tower: no
ARTCC: MEMPHIS CENTER
FSS: JONESBORO FLIGHT SERVICE STATION
NOTAMs facility: JBR (NOTAM-D service available)
Attendance: UNATNDD
Wind indicator: yes
Segmented circle: no

Airport Communications

CTAF: 122.9
WX ASOS at PBF (14 nm S): 120.775 (870-536-0228)

Nearby radio navigation aids

VOR radial/distance  VOR name  Freq  Var
PBFr346/9.7PINE BLUFF VOR/DME116.0004E
LITr141/19.6LITTLE ROCK VORTAC113.9005E

 
NDB name  Hdg/Dist  Freq  Var  ID
TONEYVILLE174/32.929001ETYV - -.-- ...-

Airport Services

Runway Information

Runway 17/35

Dimensions: 3800 x 75 ft. / 1158 x 23 m
Surface: turf, in good condition
RUNWAY 17  RUNWAY 35
Latitude: 34-24.685667N34-24.059333N
Longitude: 091-57.525000W091-57.525000W
Traffic pattern: leftright
Obstructions: 15 ft. road50 ft. trees

Airport Ownership and Management from official FAA records

Ownership: Privately-owned
Owner: WILLIE C. SMITH
9010 N. HWY 15
SHERRILL, AR 72152-8981
Phone 870-773-4479
Manager: BEVERLY A. SMITH
9010 N. HWY 15
SHERRILL, AR 72152
Phone (870) 766-4619

Airport Operational Statistics

Aircraft based on the field: 7
Single engine airplanes: 6
Multi engine airplanes: 1
    
Aircraft operations: 200/year *
50% transient general aviation
50% local general aviation
* for 12-month period ending 31 August 2016

Additional Remarks

FOR CD CTC LITTLE ROCK APCH 501-379-2908 OR LITTLE ROCK ATCT 501-379-2911.

Instrument Procedures

There are no published instrument procedures at 99A.

Some nearby airports with instrument procedures:

KPBF - Pinebluff Regional/Grider Field Airport (14 nm S)
9M8 - Sheridan Municipal Airport (20 nm W)
KSGT - Stuttgart Municipal Airport / Carl Humphrey Field (22 nm NE)
KLIT - Bill and Hillary Clinton National Airport/Adams Field (23 nm NW)
M73 - Almyra Municipal Airport (24 nm E)
 
Loc | Ops | Rwys | IFR | FBO | Links
Com | Nav | Svcs | Stats | Notes
Area around 99A (Smith's International Airport)
 
Road maps at: MapQuest Bing Google
 
Aerial photo
WARNING: Photo may not be current or correct
Aerial photo of 99A (Smith's International Airport)
Photo courtesy of the Arkansas Department of Aeronautics
Taken in the Spring of 2007

Do you have a better or more recent aerial photo of Smith's International Airport that you would like to share? If so, please send us your photo.

 
Sectional chart

 
Airport distance calculator
Flying to Smith's International Airport? Find the distance to fly.

From to 99A

Sunrise and sunset
Times for 22-Jan-2021
 Local
(UTC-6)
 Zulu
(UTC)
Morning civil twilight06:4612:46
Sunrise07:1313:13
Sunset17:2623:26
Evening civil twilight17:5323:53

Current date and time
Zulu (UTC)  23-Jan-2021 05:43:26
Local (UTC-6)  22-Jan-2021 23:43:26
 
METAR
KPBF 
13nm S 
230453Z AUTO 04007KT 10SM CLR 05/M03 A3018 RMK AO2 SLP219 T00501033 $
KSGT 
23nm NE 
230456Z AUTO 06010KT 10SM CLR 04/M01 A3019 RMK AO2 SLP226 T00441011 PNO $
KLIT 
24nm NW 
230453Z 06007KT 10SM FEW120 03/M02 A3020 RMK AO2 SLP232 T00331022
TAF
KPBF 
13nm S 
221720Z 2218/2318 04012KT P6SM FEW025 FM230000 04006KT P6SM OVC050
NOTAMs
Click for the latest NOTAMs
NOTAMs are issued by the DoD/FAA and will open in a separate window not controlled by AirNav.

 

 
 

Would you like to see your business listed on this page?

 If your business provides an interesting product or service to pilots, flight crews, aircraft, or users of the Smith's International Airport, you should consider listing it here.  To start the listing process, click on the button below
 
Add a business
 

Other Pages about Smith's International Airport

Update a link
 
Copyright © AirNav, LLC. All rights reserved. Privacy Policy  Contact